Time;durP1;ratioP1;P1;durP2;ratioP2;P2;SDS_P1;SDS_P2;PMS_P1;PMS_P2;Temp;Humidity;BMP_temperature;BMP_pressure;BME280_temperature;BME280_humidity;BME280_pressure;Samples;Min_cycle;Max_cycle;Signal;HPM_P1;HPM_P2
2023/02/13 00:03:20;;;;;;;23.55;15.20;;;;;;;7.50;65.42;102014.88;10374643;28;20809;-65
2023/02/13 00:08:21;;;;;;;24.95;15.30;;;;;;;7.52;65.38;102013.09;10372945;28;20049;-65
2023/02/13 00:13:23;;;;;;;24.88;15.43;;;;;;;7.52;65.33;102018.31;10374937;28;20053;-65
2023/02/13 00:18:26;;;;;;;22.80;15.02;;;;;;;7.65;64.93;102012.88;10374354;28;20042;-65
2023/02/13 00:23:30;;;;;;;21.33;14.18;;;;;;;7.63;65.15;102014.66;10368615;28;20052;-65
2023/02/13 00:28:32;;;;;;;22.35;15.15;;;;;;;7.59;65.13;102010.38;10388670;28;20391;-64
2023/02/13 00:33:34;;;;;;;23.73;14.55;;;;;;;7.78;64.61;102005.75;10382748;28;20053;-65
2023/02/13 00:38:37;;;;;;;22.67;15.05;;;;;;;7.83;64.60;102007.41;10376026;28;20068;-65
2023/02/13 00:43:39;;;;;;;22.40;14.45;;;;;;;7.86;64.64;102012.56;10372459;28;20246;-65
2023/02/13 00:48:41;;;;;;;22.33;14.48;;;;;;;7.88;64.49;102003.00;10373406;28;20176;-65
2023/02/13 00:53:42;;;;;;;22.52;14.05;;;;;;;7.91;64.33;102002.09;10371722;28;20057;-65
2023/02/13 00:58:44;;;;;;;20.85;14.40;;;;;;;7.94;64.15;102007.22;10373152;28;20060;-65
2023/02/13 01:03:46;;;;;;;25.30;14.70;;;;;;;7.89;64.32;102007.34;10370278;28;20056;-65
2023/02/13 01:08:48;;;;;;;20.67;14.60;;;;;;;7.89;64.15;102009.06;10378778;28;20059;-65
2023/02/13 01:13:49;;;;;;;24.20;15.70;;;;;;;7.82;64.25;102013.50;10375919;28;20524;-65
2023/02/13 01:18:51;;;;;;;23.35;15.25;;;;;;;7.83;64.31;102014.38;10379850;28;20049;-65
2023/02/13 01:23:53;;;;;;;21.73;15.05;;;;;;;7.84;64.29;102003.06;10396196;28;20056;-65
2023/02/13 01:28:56;;;;;;;24.20;15.98;;;;;;;7.86;64.31;102003.88;10383492;28;20512;-65
2023/02/13 01:33:58;;;;;;;21.33;14.52;;;;;;;7.85;64.32;101995.22;10380369;28;20049;-65
2023/02/13 01:39:00;;;;;;;23.08;15.80;;;;;;;7.84;64.14;101997.84;10381469;28;20045;-65
2023/02/13 01:44:02;;;;;;;22.58;14.80;;;;;;;7.82;64.00;101991.81;10381422;28;20053;-65
2023/02/13 01:49:22;;;;;;;22.45;15.15;;;;;;;7.67;64.17;101990.28;10382021;28;20053;-67
2023/02/13 01:54:29;;;;;;;24.13;15.27;;;;;;;7.60;64.16;101988.69;10383676;28;20055;-65
2023/02/13 01:59:53;;;;;;;18.30;13.38;;;;;;;7.44;64.23;101983.72;10384729;28;20080;-65
2023/02/13 02:04:55;;;;;;;20.35;14.32;;;;;;;7.24;64.40;101976.19;10383748;28;20481;-65
2023/02/13 02:10:06;;;;;;;21.23;14.93;;;;;;;6.98;64.36;101976.50;10378561;28;20042;-65
2023/02/13 02:15:08;;;;;;;21.95;15.18;;;;;;;6.71;64.49;101971.66;10381205;28;20049;-65
2023/02/13 02:20:19;;;;;;;22.35;15.45;;;;;;;6.40;64.90;101972.88;10378694;28;20041;-64
2023/02/13 02:25:51;;;;;;;24.30;15.93;;;;;;;6.09;65.29;101982.66;10377346;28;20068;-65
2023/02/13 02:31:05;;;;;;;22.23;15.40;;;;;;;5.98;65.78;101973.25;10371879;28;20063;-65
2023/02/13 02:36:55;;;;;;;20.92;15.07;;;;;;;5.78;66.22;101972.56;10369315;28;20409;-65
2023/02/13 02:42:10;;;;;;;22.05;14.98;;;;;;;5.75;66.34;101976.03;10375325;28;20064;-64
2023/02/13 02:53:01;;;;;;;20.43;14.13;;;;;;;5.37;66.40;101988.41;10374752;28;20054;-64
2023/02/13 03:14:26;;;;;;;26.25;17.23;;;;;;;4.98;67.04;101996.38;10383072;28;20064;-64
2023/02/13 03:25:29;;;;;;;28.20;18.10;;;;;;;4.83;67.01;101999.00;10384522;28;20053;-64
2023/02/13 03:30:48;;;;;;;29.05;18.05;;;;;;;4.72;67.38;101999.91;10385025;28;20103;-64
2023/02/13 03:41:51;;;;;;;39.72;22.15;;;;;;;4.51;67.54;102017.25;10384622;28;20572;-64
2023/02/13 03:46:57;;;;;;;35.83;20.63;;;;;;;4.44;67.60;102021.59;10383881;28;20060;-65
2023/02/13 03:52:15;;;;;;;48.22;22.02;;;;;;;4.27;67.86;102015.53;10382698;28;20079;-65
2023/02/13 04:02:53;;;;;;;37.45;20.23;;;;;;;4.19;68.38;102024.22;10381404;28;20054;-64
2023/02/13 04:07:55;;;;;;;37.42;19.25;;;;;;;4.17;68.12;102024.19;10376799;28;20052;-65
2023/02/13 04:13:22;;;;;;;36.92;19.50;;;;;;;4.11;68.03;102031.97;10372334;28;20634;-65
2023/02/13 04:18:29;;;;;;;41.88;19.92;;;;;;;3.97;67.96;102018.16;10374943;28;20049;-64
2023/02/13 04:23:31;;;;;;;51.85;21.88;;;;;;;3.90;68.43;102023.34;10374541;28;20041;-65
2023/02/13 04:28:33;;;;;;;53.95;22.20;;;;;;;3.86;68.03;102017.31;10377280;28;20065;-64
2023/02/13 04:33:34;;;;;;;57.05;22.13;;;;;;;3.82;68.62;102020.72;10382839;28;20088;-64
2023/02/13 04:38:36;;;;;;;31.50;17.52;;;;;;;3.78;68.26;102024.16;10379401;28;20049;-65
2023/02/13 04:43:38;;;;;;;33.78;18.10;;;;;;;3.74;67.94;102025.03;10378159;28;20552;-65
2023/02/13 04:48:39;;;;;;;43.53;20.42;;;;;;;3.68;67.67;102010.31;10383652;28;20057;-65
2023/02/13 04:53:41;;;;;;;32.78;18.48;;;;;;;3.58;67.83;102007.72;10384646;28;20054;-64
2023/02/13 04:58:42;;;;;;;91.03;24.83;;;;;;;3.47;67.76;102006.84;10382705;28;20049;-64
2023/02/13 05:03:44;;;;;;;65.38;21.98;;;;;;;3.33;67.77;102005.97;10383995;28;20064;-64
2023/02/13 05:08:46;;;;;;;36.30;19.00;;;;;;;3.28;67.74;102008.53;10377671;28;20408;-64
2023/02/13 05:13:48;;;;;;;29.92;17.35;;;;;;;3.26;67.77;102004.19;10379512;28;20049;-65
2023/02/13 05:18:53;;;;;;;71.95;23.15;;;;;;;3.15;67.85;102016.25;10379477;28;20060;-65
2023/02/13 05:23:55;;;;;;;52.15;20.67;;;;;;;3.07;67.98;102015.34;10376694;28;20072;-64
2023/02/13 05:34:17;;;;;;;608.13;38.13;;;;;;;2.88;68.00;102011.81;10379760;28;20489;-64
2023/02/13 05:39:19;;;;;;;213.80;23.63;;;;;;;2.92;68.11;102018.72;10382932;28;20152;-65
2023/02/13 05:44:21;;;;;;;355.45;30.20;;;;;;;3.02;67.84;102017.91;10379650;28;20055;-65
2023/02/13 05:49:22;;;;;;;450.42;38.50;;;;;;;2.93;67.23;102016.16;10382378;28;20096;-65
2023/02/13 05:54:24;;;;;;;595.95;34.88;;;;;;;2.72;67.88;102023.81;10376611;28;20498;-65
2023/02/13 05:59:26;;;;;;;506.58;35.00;;;;;;;2.71;67.82;102022.06;10381547;28;20072;-65
2023/02/13 06:04:27;;;;;;;337.67;26.13;;;;;;;2.80;67.77;102029.00;10374856;28;20045;-65
2023/02/13 06:09:29;;;;;;;338.17;28.48;;;;;;;2.88;67.76;102023.03;10377300;28;20417;-65
2023/02/13 06:14:31;;;;;;;207.60;26.13;;;;;;;2.98;67.37;102023.94;10380355;28;20099;-64
2023/02/13 06:19:32;;;;;;;303.25;29.08;;;;;;;3.02;67.28;102021.38;10377847;28;20050;-65
2023/02/13 06:24:34;;;;;;;247.45;27.60;;;;;;;3.01;67.08;102014.47;10374567;28;20059;-65
2023/02/13 06:29:35;;;;;;;460.33;31.55;;;;;;;2.99;67.23;102016.16;10374839;28;20371;-65
2023/02/13 06:34:37;;;;;;;490.40;33.45;;;;;;;3.10;67.21;102023.09;10378077;28;20049;-65
2023/02/13 06:39:39;;;;;;;535.33;34.03;;;;;;;3.13;67.18;102030.88;10379160;28;20042;-65
2023/02/13 06:44:40;;;;;;;543.30;36.38;;;;;;;3.22;67.35;102028.31;10376857;28;20758;-65
2023/02/13 06:49:42;;;;;;;641.22;38.28;;;;;;;3.25;67.25;102024.03;10378726;28;20045;-64
2023/02/13 06:54:43;;;;;;;663.67;31.55;;;;;;;3.16;67.21;102030.88;10373743;28;20055;-65
2023/02/13 06:59:48;;;;;;;629.10;38.55;;;;;;;3.07;67.87;102033.44;10378984;28;20130;-65
2023/02/13 07:04:50;;;;;;;697.50;42.35;;;;;;;3.16;67.73;102041.22;10383685;28;20407;-65
2023/02/13 07:09:51;;;;;;;675.50;42.03;;;;;;;3.18;67.57;102042.97;10373765;28;20056;-65
2023/02/13 07:14:53;;;;;;;579.30;37.58;;;;;;;3.25;67.68;102043.84;10380411;28;20053;-66
2023/02/13 07:19:55;;;;;;;559.75;36.20;;;;;;;3.31;67.59;102044.75;10372452;28;20049;-66
2023/02/13 07:24:57;;;;;;;431.15;29.27;;;;;;;3.30;67.63;102042.13;10366653;28;20049;-66
2023/02/13 07:29:59;;;;;;;853.72;47.05;;;;;;;3.33;67.52;102048.22;10373744;28;20053;-66
2023/02/13 07:35:01;;;;;;;693.30;40.53;;;;;;;3.26;67.34;102046.44;10368490;28;20430;-66
2023/02/13 07:40:04;;;;;;;546.17;33.85;;;;;;;3.07;67.49;102048.97;10370585;28;20045;-66
2023/02/13 07:45:07;;;;;;;582.05;40.88;;;;;;;3.17;67.67;102048.13;10369249;28;20051;-66
2023/02/13 07:50:10;;;;;;;600.33;40.45;;;;;;;3.39;67.38;102048.22;10372416;28;20084;-66
2023/02/13 07:55:12;;;;;;;320.85;26.58;;;;;;;3.54;67.14;102047.38;10368447;28;20064;-65
2023/02/13 08:00:15;;;;;;;453.38;31.20;;;;;;;3.73;66.65;102044.84;10370942;28;20068;-66
2023/02/13 08:05:19;;;;;;;336.88;24.42;;;;;;;3.81;66.60;102047.44;10371577;28;20049;-66
2023/02/13 08:15:47;;;;;;;322.45;23.55;;;;;;;3.94;66.71;102036.28;10366077;28;20057;-65
2023/02/13 08:20:49;;;;;;;294.35;21.85;;;;;;;3.91;66.58;102038.84;10378224;28;20124;-65
2023/02/13 08:25:50;;;;;;;485.75;28.90;;;;;;;4.07;66.28;102035.41;10375653;28;20050;-64
2023/02/13 08:30:54;;;;;;;186.68;19.73;;;;;;;4.10;66.83;102038.03;10382919;28;20532;-65
2023/02/13 08:35:55;;;;;;;380.67;22.85;;;;;;;4.19;66.35;102040.59;10382141;28;20057;-64
2023/02/13 08:40:58;;;;;;;416.67;24.77;;;;;;;4.23;66.16;102042.31;10391346;28;20049;-64
2023/02/13 08:46:00;;;;;;;493.35;24.23;;;;;;;4.18;65.88;102048.38;10387333;28;20046;-64
2023/02/13 08:51:10;;;;;;;560.10;31.90;;;;;;;4.35;65.87;102057.84;10390878;28;20061;-65
2023/02/13 08:56:12;;;;;;;755.58;40.83;;;;;;;4.39;65.38;102054.38;10384657;28;20053;-65
2023/02/13 09:01:13;;;;;;;275.27;21.05;;;;;;;4.62;65.25;102047.47;10388509;28;20409;-65
2023/02/13 09:06:15;;;;;;;325.98;23.15;;;;;;;4.75;65.27;102057.78;10385817;28;20545;-65
2023/02/13 09:11:18;;;;;;;431.13;28.15;;;;;;;4.76;65.13;102064.72;10389709;28;20049;-65
2023/02/13 09:16:21;;;;;;;208.40;22.08;;;;;;;5.01;64.99;102069.81;10385155;28;20049;-64
2023/02/13 09:21:23;;;;;;;519.30;36.08;;;;;;;5.28;64.84;102066.28;10388331;28;20060;-65
2023/02/13 09:26:24;;;;;;;348.52;23.50;;;;;;;5.39;64.92;102070.53;10384815;28;20053;-65
2023/02/13 09:31:26;;;;;;;328.95;24.73;;;;;;;5.46;64.77;102066.19;10386417;28;20054;-65
2023/02/13 09:36:30;;;;;;;392.15;25.05;;;;;;;5.53;64.72;102065.31;10384275;28;20085;-65
2023/02/13 09:41:36;;;;;;;221.90;22.95;;;;;;;5.66;64.69;102066.94;10388837;28;20056;-65
2023/02/13 09:46:39;;;;;;;113.38;26.42;;;;;;;5.63;64.62;102059.19;10383818;28;20045;-64
2023/02/13 09:51:49;;;;;;;36.13;20.30;;;;;;;5.75;64.84;102066.91;10403633;28;20053;-65
2023/02/13 09:57:00;;;;;;;29.92;19.65;;;;;;;5.84;64.77;102055.59;10384544;28;20782;-65
2023/02/13 10:02:40;;;;;;;25.63;18.05;;;;;;;5.85;64.55;102055.56;10385569;28;20064;-65
2023/02/13 10:07:49;;;;;;;25.00;17.92;;;;;;;6.00;64.93;102055.44;10387259;28;20064;-65
2023/02/13 10:12:57;;;;;;;25.98;18.23;;;;;;;6.14;64.24;102051.00;10384515;28;20092;-65
2023/02/13 10:18:04;;;;;;;22.35;16.20;;;;;;;6.19;64.63;102049.25;10386374;28;20053;-64
2023/02/13 10:23:27;;;;;;;22.38;16.42;;;;;;;6.33;64.43;102050.03;10380259;28;20076;-64
2023/02/13 10:28:32;;;;;;;23.45;16.42;;;;;;;6.68;63.93;102046.22;10386756;28;20049;-65
2023/02/13 10:33:38;;;;;;;23.33;16.45;;;;;;;6.94;63.71;102049.41;10383708;28;20057;-64
2023/02/13 10:39:01;;;;;;;20.65;15.35;;;;;;;7.27;62.72;102037.72;10403082;28;20049;-65
2023/02/13 10:44:40;;;;;;;20.95;15.07;;;;;;;7.38;61.56;102030.66;10383430;28;20056;-65
2023/02/13 10:49:51;;;;;;;19.52;14.23;;;;;;;7.40;61.97;102027.16;10387077;28;20053;-64
2023/02/13 10:55:11;;;;;;;18.17;13.88;;;;;;;7.61;61.02;102029.44;10377366;28;20413;-65
2023/02/13 11:00:37;;;;;;;18.27;13.18;;;;;;;7.75;61.06;102022.28;10379220;28;20136;-65
2023/02/13 11:05:50;;;;;;;16.23;12.43;;;;;;;7.85;60.50;102013.44;10464503;27;20988;-65
2023/02/13 11:10:52;;;;;;;19.35;14.07;;;;;;;7.94;60.61;102005.50;10462570;28;20053;-66
2023/02/13 11:16:01;;;;;;;18.15;13.63;;;;;;;7.97;60.18;101995.03;10460891;28;20470;-66
2023/02/13 11:21:16;;;;;;;17.13;12.27;;;;;;;8.06;59.47;101995.78;10460575;28;20386;-66
2023/02/13 11:26:27;;;;;;;17.73;12.40;;;;;;;8.20;59.34;101989.44;10461162;28;20478;-66
2023/02/13 11:31:31;;;;;;;15.52;11.07;;;;;;;8.40;59.30;101983.91;10461818;28;20071;-66
2023/02/13 11:36:33;;;;;;;15.38;11.38;;;;;;;8.39;59.01;101987.38;10458245;28;20121;-66
2023/02/13 11:41:41;;;;;;;14.30;10.43;;;;;;;8.54;58.29;101981.88;10460917;28;20440;-65
2023/02/13 11:46:46;;;;;;;12.93;9.40;;;;;;;8.55;57.33;101974.03;10460135;28;20144;-65
2023/02/13 11:51:53;;;;;;;13.80;9.40;;;;;;;8.68;56.90;101967.69;10461994;28;20056;-65
2023/02/13 11:56:57;;;;;;;11.85;8.23;;;;;;;8.78;56.51;101963.16;10460233;28;20382;-65
2023/02/13 12:02:20;;;;;;;14.18;9.38;;;;;;;8.93;55.32;101956.75;10456330;28;20064;-65
2023/02/13 12:07:23;;;;;;;14.02;8.20;;;;;;;9.10;55.68;101950.28;10446795;28;20122;-65
2023/02/13 12:12:35;;;;;;;13.10;8.85;;;;;;;9.23;55.58;101941.31;10445751;28;20422;-65
2023/02/13 12:17:39;;;;;;;13.13;9.20;;;;;;;9.36;55.58;101934.88;10421767;28;20493;-65
2023/02/13 12:23:08;;;;;;;16.77;9.77;;;;;;;9.53;55.24;101926.66;10423350;28;20403;-65
2023/02/13 12:28:12;;;;;;;13.45;9.30;;;;;;;9.60;55.71;101920.41;10428375;28;20054;-65
2023/02/13 12:33:20;;;;;;;15.20;10.88;;;;;;;9.91;55.27;101910.09;10421492;28;20122;-65
2023/02/13 12:38:33;;;;;;;15.23;9.63;;;;;;;10.01;54.96;101906.34;10427698;28;20051;-65
2023/02/13 12:44:19;;;;;;;12.38;9.27;;;;;;;10.13;53.51;101906.88;10422677;28;20487;-65
2023/02/13 12:50:00;;;;;;;11.82;8.68;;;;;;;10.22;54.40;101890.94;10421955;28;20044;-65
2023/02/13 12:55:20;;;;;;;12.73;9.23;;;;;;;10.36;55.07;101893.16;10423269;28;20053;-65
2023/02/13 13:00:40;;;;;;;12.27;8.85;;;;;;;10.41;55.25;101875.59;10427944;28;20059;-65
2023/02/13 13:06:06;;;;;;;13.40;8.48;;;;;;;10.58;53.79;101878.59;10417291;28;20069;-65
2023/02/13 13:11:37;;;;;;;11.70;8.73;;;;;;;10.75;53.38;101868.47;10403626;28;20061;-65
2023/02/13 13:16:56;;;;;;;12.60;8.77;;;;;;;10.80;53.56;101866.59;10416142;28;20052;-64
2023/02/13 13:22:13;;;;;;;14.85;8.32;;;;;;;10.94;52.84;101856.56;10423573;28;20413;-65
2023/02/13 13:27:25;;;;;;;10.60;7.93;;;;;;;11.07;53.07;101852.66;10424868;28;20049;-65
2023/02/13 13:32:28;;;;;;;10.80;7.97;;;;;;;11.15;53.18;101852.44;10427839;28;20049;-65
2023/02/13 13:37:41;;;;;;;9.38;7.32;;;;;;;11.21;52.49;101850.47;10429912;28;20072;-65
2023/02/13 13:43:27;;;;;;;11.18;7.07;;;;;;;11.25;52.38;101841.59;10429322;28;20061;-65
2023/02/13 13:48:50;;;;;;;13.15;7.65;;;;;;;11.30;51.54;101826.59;10400839;28;20049;-64
2023/02/13 13:54:04;;;;;;;10.70;6.78;;;;;;;11.42;51.59;101830.56;10426106;28;20052;-64
2023/02/13 13:59:16;;;;;;;9.70;6.93;;;;;;;11.50;51.37;101825.09;10427217;28;20473;-64
2023/02/13 14:04:35;;;;;;;10.55;6.78;;;;;;;11.64;51.64;101817.63;10427394;28;20057;-64
2023/02/13 14:09:41;;;;;;;9.15;6.20;;;;;;;11.73;51.11;101812.03;10428014;28;20417;-64
2023/02/13 14:14:44;;;;;;;9.75;6.40;;;;;;;11.88;50.85;101807.16;10426962;28;20052;-64
2023/02/13 14:19:51;;;;;;;12.43;7.35;;;;;;;11.96;49.78;101804.25;10424152;28;20056;-64
2023/02/13 14:25:04;;;;;;;9.23;6.07;;;;;;;11.99;50.32;101801.50;10426250;28;20053;-65
2023/02/13 14:30:26;;;;;;;9.15;5.88;;;;;;;11.95;49.52;101805.13;10428464;28;20052;-64
2023/02/13 14:35:36;;;;;;;7.45;5.18;;;;;;;11.92;49.61;101802.63;10427346;28;20402;-64
2023/02/13 14:40:48;;;;;;;9.65;5.53;;;;;;;12.01;49.82;101803.16;10426279;28;20481;-64
2023/02/13 14:46:02;;;;;;;7.68;5.10;;;;;;;11.98;49.57;101799.78;10427715;28;20171;-64
2023/02/13 14:51:05;;;;;;;7.32;4.47;;;;;;;12.02;49.60;101783.91;10424959;28;20579;-64
2023/02/13 14:56:13;;;;;;;6.50;4.75;;;;;;;12.06;48.86;101792.50;10427637;28;20974;-64
2023/02/13 15:01:31;;;;;;;6.10;4.13;;;;;;;12.11;48.08;101785.31;10426963;28;20164;-63
2023/02/13 15:06:38;;;;;;;6.28;4.22;;;;;;;12.17;49.14;101785.13;10425720;28;20053;-64
2023/02/13 15:11:42;;;;;;;8.30;4.35;;;;;;;12.18;48.74;101778.94;10427133;28;20075;-64
2023/02/13 15:16:51;;;;;;;7.90;4.40;;;;;;;12.16;49.43;101775.53;10427219;28;20056;-63
2023/02/13 15:21:56;;;;;;;5.47;3.65;;;;;;;12.02;49.46;101778.66;10425532;28;20064;-64
2023/02/13 15:27:03;;;;;;;5.97;3.50;;;;;;;11.95;47.60;101779.78;10426777;28;20060;-64
2023/02/13 15:32:18;;;;;;;5.37;3.17;;;;;;;11.96;48.37;101772.78;10426173;28;20049;-64
2023/02/13 15:37:22;;;;;;;4.05;2.60;;;;;;;11.93;48.29;101773.72;10425970;28;20052;-64
2023/02/13 15:42:24;;;;;;;6.15;2.60;;;;;;;11.82;48.02;101765.41;10425898;28;20064;-64
2023/02/13 15:47:30;;;;;;;3.95;2.42;;;;;;;11.81;48.33;101768.94;10426404;28;20052;-64
2023/02/13 15:52:35;;;;;;;3.75;2.20;;;;;;;11.70;47.96;101778.09;10433804;28;20044;-64
2023/02/13 15:57:38;;;;;;;7.57;4.60;;;;;;;11.53;49.42;101778.69;10434417;28;20063;-64
2023/02/13 16:02:44;;;;;;;5.63;3.42;;;;;;;11.40;50.04;101777.38;10431902;28;20063;-64
2023/02/13 16:07:47;;;;;;;5.10;3.10;;;;;;;11.38;49.45;101773.13;10431637;28;20067;-64
2023/02/13 16:12:49;;;;;;;4.68;2.40;;;;;;;11.35;48.83;101768.84;10429180;28;20044;-64
2023/02/13 16:17:50;;;;;;;8.15;3.30;;;;;;;11.15;49.85;101777.34;10430639;28;20136;-64
2023/02/13 16:23:02;;;;;;;8.02;3.42;;;;;;;10.81;50.36;101781.03;10426998;28;20061;-64
2023/02/13 16:28:21;;;;;;;7.47;4.13;;;;;;;10.45;51.30;101783.03;10431205;28;20140;-64
2023/02/13 16:33:43;;;;;;;10.77;6.70;;;;;;;10.02;52.36;101796.50;10430187;28;20063;-64
2023/02/13 16:38:47;;;;;;;17.40;7.88;;;;;;;9.78;52.48;101794.56;10420917;28;20053;-64
2023/02/13 16:43:52;;;;;;;15.75;7.75;;;;;;;9.49;52.75;101805.75;10430572;28;20051;-64
2023/02/13 16:48:57;;;;;;;14.10;5.97;;;;;;;9.21;52.91;101817.78;10430857;28;20492;-64
2023/02/13 16:54:02;;;;;;;13.20;6.55;;;;;;;8.95;53.38;101821.91;10430797;28;20049;-64
2023/02/13 16:59:16;;;;;;;9.38;4.50;;;;;;;8.66;54.03;101822.53;10430523;28;20049;-64
2023/02/13 17:04:22;;;;;;;9.75;4.45;;;;;;;8.47;54.54;101823.81;10424569;28;20063;-64
2023/02/13 17:09:24;;;;;;;11.82;6.47;;;;;;;8.32;53.56;101838.06;10422051;28;20049;-64
2023/02/13 17:14:26;;;;;;;12.25;8.02;;;;;;;8.20;53.25;101832.22;10428522;28;20045;-65
2023/02/13 17:19:28;;;;;;;15.35;8.75;;;;;;;8.00;53.27;101841.25;10427647;28;20420;-65
2023/02/13 17:24:30;;;;;;;11.30;6.00;;;;;;;7.74;54.09;101848.69;10427370;28;20048;-65
2023/02/13 17:29:32;;;;;;;9.30;5.63;;;;;;;7.56;54.75;101846.41;10428138;28;20045;-64
2023/02/13 17:34:33;;;;;;;8.15;5.38;;;;;;;7.38;56.10;101840.63;10427596;28;20049;-65
2023/02/13 17:39:35;;;;;;;8.32;4.97;;;;;;;7.13;56.57;101842.78;10427847;28;20056;-64
2023/02/13 17:44:36;;;;;;;12.02;7.25;;;;;;;6.98;57.28;101842.97;10428764;28;20056;-64
2023/02/13 17:49:38;;;;;;;14.65;8.95;;;;;;;6.84;57.92;101839.72;10427443;28;20048;-64
2023/02/13 17:54:40;;;;;;;12.50;7.50;;;;;;;6.73;58.53;101836.44;10426534;28;20053;-64
2023/02/13 17:59:42;;;;;;;12.10;7.53;;;;;;;6.65;58.97;101833.94;10426661;28;20056;-64
2023/02/13 18:04:45;;;;;;;12.80;7.72;;;;;;;6.56;59.03;101834.06;10422748;28;20416;-63
2023/02/13 18:09:47;;;;;;;12.02;6.68;;;;;;;6.47;59.48;101844.56;10425791;28;20095;-63
2023/02/13 18:14:49;;;;;;;8.27;5.40;;;;;;;6.35;59.85;101850.78;10422668;28;20053;-63
2023/02/13 18:19:51;;;;;;;13.80;7.68;;;;;;;6.22;59.78;101854.38;10422099;28;20045;-64
2023/02/13 18:24:53;;;;;;;12.52;6.35;;;;;;;6.11;59.96;101857.94;10419837;28;20055;-62
2023/02/13 18:29:55;;;;;;;42.85;20.73;;;;;;;6.01;60.29;101854.59;10421599;28;20048;-63
2023/02/13 18:34:56;;;;;;;61.67;27.48;;;;;;;5.90;60.65;101866.00;10426470;28;20406;-63
2023/02/13 18:39:58;;;;;;;41.30;20.90;;;;;;;5.78;60.62;101868.72;10420899;28;20048;-63
2023/02/13 18:45:00;;;;;;;84.28;41.05;;;;;;;5.63;61.18;101871.44;10420150;28;20818;-63
2023/02/13 18:50:03;;;;;;;70.70;34.72;;;;;;;5.45;61.20;101870.69;10423251;28;20049;-63
2023/02/13 18:55:08;;;;;;;34.58;18.23;;;;;;;5.40;61.82;101874.22;10425516;28;20418;-63
2023/02/13 19:00:11;;;;;;;23.42;13.40;;;;;;;5.30;61.91;101872.56;10423658;28;20053;-63
2023/02/13 19:05:13;;;;;;;16.20;9.48;;;;;;;5.20;62.11;101863.13;10422513;28;20060;-63
2023/02/13 19:10:15;;;;;;;18.23;11.13;;;;;;;5.07;62.07;101867.53;10425891;28;20053;-63
2023/02/13 19:15:16;;;;;;;16.40;9.73;;;;;;;4.98;62.34;101870.19;10426145;28;20497;-63
2023/02/13 19:20:18;;;;;;;10.98;7.03;;;;;;;4.90;62.65;101874.56;10425413;28;20053;-63
2023/02/13 19:25:21;;;;;;;8.20;5.53;;;;;;;4.85;62.63;101867.66;10427156;28;20052;-63
2023/02/13 19:30:22;;;;;;;16.02;10.80;;;;;;;4.73;62.76;101876.38;10433403;28;20053;-63
2023/02/13 19:35:24;;;;;;;14.43;9.25;;;;;;;4.64;62.86;101879.88;10431758;28;20481;-63
2023/02/13 19:40:26;;;;;;;16.33;9.32;;;;;;;4.56;63.11;101880.75;10430471;28;20044;-63
2023/02/13 19:45:28;;;;;;;12.10;6.88;;;;;;;4.50;63.17;101876.47;10431459;28;20053;-63
2023/02/13 19:50:30;;;;;;;14.27;6.95;;;;;;;4.45;63.37;101873.06;10430880;28;20490;-63
2023/02/13 19:55:31;;;;;;;13.60;9.18;;;;;;;4.38;63.02;101881.72;10431991;28;20497;-63
2023/02/13 20:00:33;;;;;;;18.00;9.90;;;;;;;4.23;63.22;101891.25;10433293;28;20048;-63
2023/02/13 20:05:38;;;;;;;11.23;6.93;;;;;;;4.13;63.41;101892.16;10433155;28;20497;-63
2023/02/13 20:10:44;;;;;;;16.17;8.32;;;;;;;4.09;63.55;101899.03;10427618;28;20044;-63
2023/02/13 20:15:46;;;;;;;11.50;7.13;;;;;;;3.97;63.35;101893.88;10432147;28;20107;-63
2023/02/13 20:20:48;;;;;;;11.80;6.90;;;;;;;3.84;63.57;101889.63;10433404;28;20053;-63
2023/02/13 20:25:50;;;;;;;11.40;6.75;;;;;;;3.70;63.54;101892.16;10432096;28;20057;-64
2023/02/13 20:30:52;;;;;;;8.10;5.35;;;;;;;3.62;63.72;101890.47;10431773;28;20041;-63
2023/02/13 20:35:54;;;;;;;12.50;5.93;;;;;;;3.60;63.89;101892.19;10430420;28;20045;-63
2023/02/13 20:40:56;;;;;;;11.70;6.07;;;;;;;3.60;64.07;101892.19;10425358;28;20060;-63
2023/02/13 20:46:00;;;;;;;10.20;5.90;;;;;;;3.34;63.85;101888.72;10429975;28;20060;-63
2023/02/13 20:51:04;;;;;;;9.90;5.72;;;;;;;3.28;64.14;101888.69;10430168;28;20056;-63
2023/02/13 20:56:17;;;;;;;9.77;6.95;;;;;;;3.19;64.03;101886.13;10427516;28;20060;-63
2023/02/13 21:01:29;;;;;;;11.55;7.07;;;;;;;3.05;64.73;101891.25;10426177;28;20080;-63
2023/02/13 21:06:33;;;;;;;10.73;7.45;;;;;;;3.09;64.52;101884.38;10424139;28;20059;-63
2023/02/13 21:11:37;;;;;;;12.25;7.85;;;;;;;3.05;64.46;101886.06;10428803;28;20073;-63
2023/02/13 21:16:40;;;;;;;12.93;7.50;;;;;;;2.97;64.74;101885.19;10423145;28;20060;-63
2023/02/13 21:21:43;;;;;;;10.48;6.72;;;;;;;2.91;64.91;101880.91;10426458;28;20045;-64
2023/02/13 21:26:46;;;;;;;11.15;6.88;;;;;;;2.85;64.69;101888.63;10427079;28;20493;-63
2023/02/13 21:31:47;;;;;;;9.80;6.78;;;;;;;2.73;64.93;101893.75;10420068;28;20049;-64
2023/02/13 21:36:49;;;;;;;11.63;6.57;;;;;;;2.69;64.85;101888.56;10420965;28;20175;-63
2023/02/13 21:41:51;;;;;;;10.15;6.03;;;;;;;2.68;64.90;101885.13;10422618;28;20040;-63
2023/02/13 21:46:52;;;;;;;10.30;6.60;;;;;;;2.61;65.24;101878.22;10420280;28;20053;-63
2023/02/13 21:51:54;;;;;;;13.85;8.05;;;;;;;2.61;65.15;101875.63;10421892;28;20841;-63
2023/02/13 21:56:56;;;;;;;12.65;7.65;;;;;;;2.56;65.11;101867.00;10422566;28;20808;-62
2023/02/13 22:01:58;;;;;;;18.92;9.93;;;;;;;2.54;65.14;101873.03;10418050;28;20084;-63
2023/02/13 22:07:00;;;;;;;19.52;10.68;;;;;;;2.50;65.33;101871.31;10421984;28;20056;-62
2023/02/13 22:12:03;;;;;;;17.38;9.88;;;;;;;2.34;65.13;101869.50;10419416;28;20144;-63
2023/02/13 22:17:04;;;;;;;12.27;7.55;;;;;;;2.32;65.34;101863.47;10419766;28;20064;-63
2023/02/13 22:22:07;;;;;;;13.25;8.10;;;;;;;2.31;65.30;101861.75;10419366;28;20056;-63
2023/02/13 22:27:09;;;;;;;23.02;14.45;;;;;;;2.22;65.20;101862.56;10417152;28;20456;-63
2023/02/13 22:32:11;;;;;;;17.75;11.65;;;;;;;2.17;65.55;101862.53;10421386;28;20062;-63
2023/02/13 22:37:12;;;;;;;12.40;7.70;;;;;;;2.13;65.53;101862.53;10418862;28;20048;-63
2023/02/13 22:42:14;;;;;;;14.57;9.07;;;;;;;2.09;65.41;101865.94;10418255;28;20512;-63
2023/02/13 22:47:16;;;;;;;14.68;9.02;;;;;;;2.05;65.61;101877.09;10420838;28;20064;-62
2023/02/13 22:52:18;;;;;;;14.63;8.60;;;;;;;2.02;65.38;101865.03;10420729;28;20049;-63
2023/02/13 22:57:19;;;;;;;14.20;8.75;;;;;;;1.97;65.46;101865.88;10420203;28;20593;-63
2023/02/13 23:02:21;;;;;;;17.25;10.05;;;;;;;1.95;65.40;101872.75;10418391;28;20341;-63
2023/02/13 23:07:22;;;;;;;11.27;7.60;;;;;;;1.91;65.50;101866.69;10420746;28;20044;-63
2023/02/13 23:12:37;;;;;;;12.55;6.90;;;;;;;1.85;65.40;101868.34;10417897;28;20057;-62
2023/02/13 23:23:00;;;;;;;19.23;10.40;;;;;;;1.66;65.40;101879.41;10420043;28;20049;-63
2023/02/13 23:28:05;;;;;;;12.60;8.43;;;;;;;1.62;65.43;101883.69;10419030;28;20064;-63
2023/02/13 23:33:07;;;;;;;19.63;11.50;;;;;;;1.59;65.50;101882.78;10402917;28;20830;-63
2023/02/13 23:38:09;;;;;;;18.85;10.07;;;;;;;1.49;65.49;101886.13;10415440;28;20056;-63
2023/02/13 23:43:10;;;;;;;17.50;9.07;;;;;;;1.48;65.41;101894.75;10418870;28;20060;-63
2023/02/13 23:48:12;;;;;;;17.85;9.13;;;;;;;1.42;65.57;101892.13;10418341;28;20504;-63
2023/02/13 23:53:14;;;;;;;18.73;10.00;;;;;;;1.33;65.60;101891.19;10419007;28;20053;-63
2023/02/13 23:58:15;;;;;;;19.08;10.63;;;;;;;1.29;65.28;101902.31;10417929;28;20053;-62
